Time;durP1;ratioP1;P1;durP2;ratioP2;P2;SDS_P1;SDS_P2;PMS_P1;PMS_P2;Temp;Humidity;BMP_temperature;BMP_pressure;BME280_temperature;BME280_humidity;BME280_pressure;Samples;Min_cycle;Max_cycle;Signal;HPM_P1;HPM_P2
2022/08/25 00:04:29;;;;;;;0.82;0.68;;;;;;;19.18;100.00;101725.59;10360449;28;20061;-78
2022/08/25 00:09:34;;;;;;;0.63;0.50;;;;;;;18.96;100.00;101728.13;10368037;28;20050;-78
2022/08/25 00:14:37;;;;;;;1.65;1.27;;;;;;;18.86;100.00;101742.00;10368936;28;20060;-78
2022/08/25 00:19:38;;;;;;;1.77;0.88;;;;;;;19.09;100.00;101722.97;10387009;28;20038;-79
2022/08/25 00:24:40;;;;;;;0.88;0.43;;;;;;;18.97;100.00;101724.66;10385646;28;20042;-78
2022/08/25 00:29:42;;;;;;;1.23;0.80;;;;;;;18.81;100.00;101730.63;10369702;28;20046;-78
2022/08/25 00:34:44;;;;;;;3.33;0.77;;;;;;;18.90;100.00;101728.06;10386037;28;20077;-78
2022/08/25 00:39:45;;;;;;;0.13;0.13;;;;;;;18.79;100.00;101729.78;10368984;28;20065;-78
2022/08/25 00:44:47;;;;;;;0.28;0.17;;;;;;;18.74;100.00;101731.47;10386255;28;20034;-77
2022/08/25 00:49:55;;;;;;;0.20;0.20;;;;;;;18.50;100.00;101743.53;10386952;28;20073;-78
2022/08/25 00:55:07;;;;;;;1.65;1.23;;;;;;;18.61;100.00;101736.63;10385535;28;20050;-78
2022/08/25 01:00:15;;;;;;;0.20;0.20;;;;;;;18.44;100.00;101740.88;10366955;28;20102;-78
2022/08/25 01:05:18;;;;;;;0.10;0.10;;;;;;;18.15;100.00;101751.97;10367547;28;20034;-78
2022/08/25 01:10:22;;;;;;;0.10;0.10;;;;;;;18.17;100.00;101745.03;10384486;28;20058;-78
2022/08/25 01:15:23;;;;;;;0.75;0.45;;;;;;;18.07;100.00;101739.75;10383401;28;20066;-78
2022/08/25 01:20:28;;;;;;;0.45;0.43;;;;;;;18.00;100.00;101737.94;10383208;28;20065;-78
2022/08/25 01:25:56;;;;;;;0.40;0.20;;;;;;;17.65;100.00;101756.72;10386321;28;20054;-78
2022/08/25 01:30:57;;;;;;;36.40;1.65;;;;;;;17.87;100.00;101741.28;10346990;28;20050;-78
2022/08/25 01:36:01;;;;;;;0.60;0.20;;;;;;;18.33;100.00;101725.13;10386924;28;20034;-78
2022/08/25 01:41:03;;;;;;;0.00;0.00;;;;;;;18.15;100.00;101725.88;10387176;28;20034;-78
2022/08/25 01:46:05;;;;;;;1999.90;999.90;;;;;;;18.58;100.00;101705.28;10369100;28;20062;-79
2022/08/25 01:51:06;;;;;;;46.58;2.53;;;;;;;18.75;100.00;101707.13;10369005;28;20054;-78
2022/08/25 01:56:11;;;;;;;1999.90;999.90;;;;;;;18.89;100.00;101692.38;10385663;28;20599;-78
2022/08/25 02:01:19;;;;;;;1999.90;999.90;;;;;;;18.77;100.00;101706.25;10367408;28;20047;-78
2022/08/25 02:06:27;;;;;;;0.00;0.00;;;;;;;18.86;100.00;101700.22;10362768;28;20065;-79
2022/08/25 02:11:32;;;;;;;0.00;0.00;;;;;;;18.53;100.00;101720.06;10379051;28;20054;-79
2022/08/25 02:16:36;;;;;;;0.00;0.00;;;;;;;18.14;100.00;101725.03;10356587;28;20316;-79
2022/08/25 02:21:38;;;;;;;0.00;0.00;;;;;;;17.89;100.00;101729.13;10358850;28;20046;-79
2022/08/25 02:26:40;;;;;;;0.00;0.00;;;;;;;17.79;100.00;101733.41;10360861;28;20050;-78
2022/08/25 02:31:42;;;;;;;0.00;0.00;;;;;;;17.58;100.00;101749.69;10377493;28;20516;-77
2022/08/25 02:36:44;;;;;;;0.15;0.08;;;;;;;17.60;100.00;101763.63;10362254;28;20050;-78
2022/08/25 02:41:46;;;;;;;0.00;0.00;;;;;;;17.55;100.00;101765.28;10378177;28;20046;-79
2022/08/25 02:46:47;;;;;;;0.17;0.15;;;;;;;17.66;100.00;101748.03;10358506;28;20043;-79
2022/08/25 02:51:49;;;;;;;0.00;0.00;;;;;;;17.69;100.00;101763.69;10357583;28;20042;-79
2022/08/25 02:56:50;;;;;;;0.00;0.00;;;;;;;17.72;100.00;101757.66;10358649;28;20081;-79
2022/08/25 03:01:52;;;;;;;0.40;0.40;;;;;;;17.60;100.00;101747.97;10375440;28;20491;-78
2022/08/25 03:06:54;;;;;;;0.00;0.00;;;;;;;17.55;100.00;101749.66;10359940;28;20066;-78
2022/08/25 03:11:55;;;;;;;0.08;0.08;;;;;;;17.45;100.00;101748.69;10377559;28;20050;-78
2022/08/25 03:16:57;;;;;;;0.17;0.17;;;;;;;17.14;100.00;101769.16;10360845;28;20058;-78
2022/08/25 03:21:58;;;;;;;0.55;0.55;;;;;;;17.19;100.00;101761.41;10376465;28;20042;-78
2022/08/25 03:27:00;;;;;;;1999.90;999.90;;;;;;;17.19;100.00;101740.56;10377779;28;20065;-78
2022/08/25 03:32:02;;;;;;;1999.90;999.90;;;;;;;16.95;100.00;101747.22;10377506;28;20078;-78
2022/08/25 03:37:05;;;;;;;0.90;0.55;;;;;;;17.01;100.00;101728.19;10361845;28;20085;-78
2022/08/25 03:42:07;;;;;;;0.45;0.30;;;;;;;17.17;100.00;101711.03;10377008;28;20026;-78
2022/08/25 03:47:08;;;;;;;0.80;0.43;;;;;;;17.01;100.00;101723.88;10351947;28;20086;-78
2022/08/25 03:52:10;;;;;;;2.63;0.73;;;;;;;16.98;100.00;101731.66;10384267;28;20050;-78
2022/08/25 03:57:12;;;;;;;0.65;0.60;;;;;;;16.57;100.00;101734.53;10387777;28;20081;-77
2022/08/25 04:02:13;;;;;;;0.68;0.60;;;;;;;16.93;100.00;101710.75;10390274;28;20035;-77
2022/08/25 04:07:16;;;;;;;1.42;0.98;;;;;;;17.21;100.00;101686.78;10387022;28;20054;-78
2022/08/25 04:12:17;;;;;;;0.65;0.60;;;;;;;17.50;100.00;101668.84;10389113;28;20058;-78
2022/08/25 04:17:19;;;;;;;1.33;0.98;;;;;;;17.49;100.00;101655.81;10373131;28;20142;-77
2022/08/25 04:22:21;;;;;;;1.35;0.93;;;;;;;17.64;100.00;101655.09;10389070;28;20109;-77
2022/08/25 04:27:23;;;;;;;1.42;1.15;;;;;;;17.68;100.00;101639.50;10389905;28;20053;-76
2022/08/25 04:32:25;;;;;;;1.95;1.42;;;;;;;17.81;100.00;101647.41;10389357;28;20550;-77
2022/08/25 04:37:27;;;;;;;0.30;0.30;;;;;;;17.82;100.00;101643.94;10388039;28;20057;-79
2022/08/25 04:42:28;;;;;;;1999.90;999.90;;;;;;;17.74;100.00;101636.94;10387756;28;20069;-79
2022/08/25 04:47:30;;;;;;;1999.90;999.90;;;;;;;17.74;100.00;101646.47;10371398;28;20078;-78
2022/08/25 04:52:31;;;;;;;7.45;7.05;;;;;;;17.70;100.00;101650.78;10370991;28;20096;-78
2022/08/25 04:57:33;;;;;;;1999.90;999.90;;;;;;;17.75;100.00;101659.53;10370034;28;20050;-78
2022/08/25 05:03:00;;;;;;;1999.90;999.90;;;;;;;17.82;100.00;101654.34;10386504;28;20038;-77
2022/08/25 05:08:04;;;;;;;1999.90;999.90;;;;;;;17.92;100.00;101646.63;10386588;28;20030;-78
2022/08/25 05:13:06;;;;;;;1999.90;999.90;;;;;;;18.02;100.00;101646.72;10369494;28;20062;-79
2022/08/25 05:18:08;;;;;;;1999.90;999.90;;;;;;;18.07;100.00;101651.09;10369158;28;20061;-76
2022/08/25 05:23:10;;;;;;;1999.90;999.90;;;;;;;18.20;100.00;101656.41;10386525;28;20035;-78
2022/08/25 05:28:13;;;;;;;1999.90;999.90;;;;;;;18.38;100.00;101646.06;10369056;28;20054;-77
2022/08/25 05:33:15;;;;;;;1999.90;999.90;;;;;;;18.53;100.00;101644.38;10368085;28;20030;-77
2022/08/25 05:38:17;;;;;;;1999.90;999.90;;;;;;;18.74;100.00;101634.91;10384903;28;20144;-77
2022/08/25 05:43:19;;;;;;;1999.90;999.90;;;;;;;18.92;100.00;101621.94;10366484;28;20065;-77
2022/08/25 05:48:21;;;;;;;1999.90;999.90;;;;;;;19.00;100.00;101630.69;10384482;28;20041;-77
2022/08/25 05:53:24;;;;;;;1999.90;999.90;;;;;;;19.27;100.00;101621.13;10366061;28;20050;-77
2022/08/25 05:58:27;;;;;;;1999.90;999.90;;;;;;;19.42;100.00;101627.25;10379936;28;20050;-77
2022/08/25 06:03:28;;;;;;;1999.90;999.90;;;;;;;19.68;100.00;101629.00;10381572;28;20486;-78
2022/08/25 06:08:32;;;;;;;1999.90;999.90;;;;;;;19.84;100.00;101630.78;10364491;28;20050;-77
2022/08/25 06:13:34;;;;;;;2.58;1.05;;;;;;;20.03;100.00;101625.50;10382409;28;20053;-78
2022/08/25 06:18:35;;;;;;;1.92;1.30;;;;;;;20.28;100.00;101627.19;10381979;28;20050;-77
2022/08/25 06:23:38;;;;;;;0.75;0.50;;;;;;;20.51;100.00;101623.63;10381041;28;20081;-77
2022/08/25 06:28:40;;;;;;;1.92;0.75;;;;;;;20.67;100.00;101627.03;10364088;28;20066;-79
2022/08/25 06:33:43;;;;;;;6.50;0.98;;;;;;;21.14;100.00;101617.19;10377469;28;20061;-77
2022/08/25 06:38:45;;;;;;;1.33;0.90;;;;;;;21.38;100.00;101626.63;10374420;28;20051;-77
2022/08/25 06:43:47;;;;;;;1.38;0.95;;;;;;;21.58;100.00;101624.75;10378896;28;20058;-78
2022/08/25 06:48:55;;;;;;;0.88;0.80;;;;;;;21.96;100.00;101611.31;10374269;28;20129;-78
2022/08/25 06:53:57;;;;;;;1.65;1.02;;;;;;;22.16;100.00;101613.69;10367957;28;20065;-80
2022/08/25 06:59:03;;;;;;;1.00;0.73;;;;;;;22.73;100.00;101601.66;10348661;28;20419;-77
2022/08/25 07:04:06;;;;;;;2.08;1.13;;;;;;;23.45;100.00;101599.69;10342380;28;20070;-77
2022/08/25 07:09:13;;;;;;;0.87;0.50;;;;;;;24.03;100.00;101610.09;10356929;28;20056;-77
2022/08/25 07:14:16;;;;;;;2.60;1.05;;;;;;;24.30;100.00;101599.94;10345523;28;20054;-79
2022/08/25 07:19:19;;;;;;;0.75;0.70;;;;;;;25.03;100.00;101601.88;10374835;28;20112;-78
2022/08/25 07:24:22;;;;;;;1.05;0.77;;;;;;;25.17;97.49;101592.75;10368783;28;20046;-78
2022/08/25 07:29:27;;;;;;;1.33;0.80;;;;;;;25.55;94.38;101592.72;10362178;28;20054;-77
2022/08/25 07:39:54;;;;;;;9.32;1.13;;;;;;;26.50;96.72;101583.94;10371422;28;20099;-78
2022/08/25 07:44:57;;;;;;;2.13;0.70;;;;;;;26.34;85.48;101582.66;10364953;28;20133;-80
2022/08/25 07:49:58;;;;;;;1.05;0.95;;;;;;;26.71;84.69;101576.25;10391027;28;20046;-78
2022/08/25 07:55:01;;;;;;;2.58;1.05;;;;;;;26.89;86.66;101575.72;10396458;28;20113;-78
2022/08/25 08:00:05;;;;;;;1.73;1.00;;;;;;;27.36;80.49;101579.47;10393635;28;20054;-79
2022/08/25 08:05:13;;;;;;;1.27;0.85;;;;;;;27.47;78.75;101587.94;10345554;28;20086;-80
2022/08/25 08:10:15;;;;;;;0.40;0.40;;;;;;;27.97;80.08;101575.59;10340169;28;20073;-79
2022/08/25 08:15:36;;;;;;;0.85;0.60;;;;;;;28.69;80.13;101574.69;10347351;28;20043;-78
2022/08/25 08:27:31;;;;;;;0.40;0.40;;;;;;;28.90;69.25;101572.09;10355875;28;20042;-78
2022/08/25 08:32:32;;;;;;;0.38;0.38;;;;;;;28.72;67.79;101574.56;10339726;28;20054;-79
2022/08/25 08:37:54;;;;;;;0.50;0.50;;;;;;;28.65;66.78;101568.63;10336697;28;20050;-79
2022/08/25 08:43:06;;;;;;;0.32;0.28;;;;;;;29.02;67.05;101563.63;10339325;28;20081;-78
2022/08/25 08:48:39;;;;;;;0.80;0.50;;;;;;;29.48;63.83;101563.50;10344761;28;20504;-79
2022/08/25 08:53:49;;;;;;;0.55;0.47;;;;;;;30.02;66.86;101546.97;10334959;28;20066;-79
2022/08/25 08:59:08;;;;;;;0.10;0.10;;;;;;;29.98;65.95;101543.59;10364988;28;20141;-77
2022/08/25 09:04:34;;;;;;;0.23;0.23;;;;;;;29.89;63.20;101542.19;10372075;28;20054;-78
2022/08/25 09:09:40;;;;;;;0.85;0.57;;;;;;;30.16;56.85;101543.69;10358728;28;20294;-79
2022/08/25 09:15:03;;;;;;;0.85;0.45;;;;;;;30.31;56.54;101529.69;10345997;28;20066;-77
2022/08/25 09:20:51;;;;;;;0.32;0.30;;;;;;;30.53;53.02;101524.19;10374024;28;20127;-77
2022/08/25 09:26:19;;;;;;;;;;;;;;;30.14;54.51;101524.28;10332206;28;20061;-78
2022/08/25 09:31:49;;;;;;;0.17;0.17;;;;;;;30.84;52.15;101521.84;10321030;28;19945;-80
2022/08/25 09:36:52;;;;;;;0.30;0.30;;;;;;;31.27;51.95;101517.03;10335911;28;20457;-79
2022/08/25 09:41:59;;;;;;;0.68;0.43;;;;;;;30.94;49.77;101512.44;10333459;28;20086;-79
2022/08/25 09:47:14;;;;;;;4.60;0.47;;;;;;;31.10;51.35;101498.38;10353676;28;20086;-79
2022/08/25 09:52:21;;;;;;;0.85;0.43;;;;;;;32.21;51.54;101497.81;10349957;28;20061;-78
2022/08/25 09:57:42;;;;;;;0.40;0.38;;;;;;;31.66;44.49;101495.53;10325879;28;20088;-78
2022/08/25 10:03:20;;;;;;;0.65;0.28;;;;;;;31.83;50.58;101484.81;10345054;28;20072;-78
2022/08/25 10:08:29;;;;;;;0.10;0.10;;;;;;;32.21;41.15;101481.81;10328848;28;20046;-80
2022/08/25 10:13:50;;;;;;;0.52;0.20;;;;;;;32.21;43.81;101476.50;10330380;28;20054;-79
2022/08/25 10:19:09;;;;;;;0.20;0.20;;;;;;;32.04;39.70;101487.22;10324456;28;20060;-79
2022/08/25 10:24:12;;;;;;;3.92;0.73;;;;;;;32.02;40.02;101483.78;10341938;28;20080;-79
2022/08/25 10:29:55;;;;;;;0.13;0.13;;;;;;;32.06;37.08;101472.88;10339154;28;20055;-79
2022/08/25 10:35:03;;;;;;;1.30;0.20;;;;;;;32.12;35.29;101461.00;10343051;28;20050;-78
2022/08/25 10:47:15;;;;;;;0.40;0.22;;;;;;;32.58;35.98;101452.19;10359275;28;20038;-79
2022/08/25 10:52:55;;;;;;;0.17;0.17;;;;;;;32.49;39.96;101448.25;10355770;28;20085;-78
2022/08/25 10:58:30;;;;;;;1.08;0.47;;;;;;;32.94;32.07;101437.63;10332208;28;20105;-80
2022/08/25 11:04:13;;;;;;;6.75;0.25;;;;;;;33.59;35.99;101433.66;10359651;28;20047;-79
2022/08/25 11:09:21;;;;;;;0.30;0.30;;;;;;;33.92;35.14;101424.47;10340223;28;20054;-79
2022/08/25 11:14:22;;;;;;;1.58;0.80;;;;;;;33.13;33.55;101431.19;10359450;28;20108;-78
2022/08/25 11:19:30;;;;;;;0.03;0.03;;;;;;;32.57;30.74;101424.66;10352272;28;20061;-79
2022/08/25 11:24:37;;;;;;;0.40;0.17;;;;;;;33.40;32.61;101419.75;10340177;28;20074;-79
2022/08/25 11:29:42;;;;;;;0.03;0.03;;;;;;;32.99;33.09;101413.31;10357555;28;20460;-80
2022/08/25 11:34:44;;;;;;;0.10;0.10;;;;;;;32.85;33.70;101417.69;10352823;28;20051;-78
2022/08/25 11:40:16;;;;;;;0.73;0.30;;;;;;;32.20;35.92;101405.47;10328422;28;20058;-79
2022/08/25 11:45:51;;;;;;;0.20;0.20;;;;;;;32.88;35.95;101398.81;10330532;28;20498;-79
2022/08/25 11:51:04;;;;;;;0.30;0.17;;;;;;;32.61;34.75;101395.13;10345191;28;20057;-79
2022/08/25 11:56:11;;;;;;;0.60;0.20;;;;;;;32.85;33.54;101393.69;10368070;28;20088;-79
2022/08/25 12:01:34;;;;;;;0.13;0.13;;;;;;;32.70;33.90;101392.75;10390135;28;20061;-79
2022/08/25 12:07:01;;;;;;;0.10;0.10;;;;;;;32.64;33.16;101384.28;10372638;28;20054;-79
2022/08/25 12:12:37;;;;;;;0.40;0.40;;;;;;;32.64;33.47;101376.28;10369152;28;20105;-79
2022/08/25 12:17:40;;;;;;;0.65;0.20;;;;;;;32.83;34.15;101371.56;10386664;28;20053;-78
2022/08/25 12:22:53;;;;;;;0.55;0.38;;;;;;;32.35;36.14;101360.22;10384177;28;20055;-78
2022/08/25 12:28:34;;;;;;;0.10;0.10;;;;;;;32.42;35.97;101350.91;10352776;28;20054;-78
2022/08/25 12:34:14;;;;;;;0.10;0.10;;;;;;;32.30;33.04;101356.94;10319765;28;20446;-80
2022/08/25 12:39:25;;;;;;;0.10;0.00;;;;;;;32.73;30.67;101359.69;10187150;29;20152;-80
2022/08/25 12:44:35;;;;;;;0.28;0.22;;;;;;;31.45;31.82;101359.91;10181998;29;20157;-79
2022/08/25 12:49:37;;;;;;;0.22;0.15;;;;;;;32.65;30.48;101354.00;10188882;29;20056;-78
2022/08/25 12:54:54;;;;;;;0.40;0.40;;;;;;;32.37;36.67;101339.63;10372294;28;20058;-79
2022/08/25 13:00:00;;;;;;;0.00;0.00;;;;;;;32.30;33.15;101340.94;10374316;28;20030;-77
2022/08/25 13:05:24;;;;;;;0.30;0.30;;;;;;;32.25;32.13;101342.09;10389512;28;20035;-78
2022/08/25 13:10:44;;;;;;;0.00;0.00;;;;;;;32.45;31.44;101345.38;10371683;28;20042;-79
2022/08/25 13:16:07;;;;;;;0.20;0.20;;;;;;;32.05;31.96;101337.06;10368630;28;20092;-79
2022/08/25 13:21:27;;;;;;;0.25;0.08;;;;;;;32.22;31.22;101333.44;10356532;28;20084;-78
2022/08/25 13:26:33;;;;;;;0.28;0.10;;;;;;;32.32;31.15;101325.72;10365989;28;20085;-78
2022/08/25 13:31:56;;;;;;;0.70;0.25;;;;;;;31.88;31.68;101320.22;10352150;28;20085;-79
2022/08/25 13:37:32;;;;;;;0.30;0.20;;;;;;;32.14;33.89;101304.50;10356796;28;20070;-79
2022/08/25 13:42:35;;;;;;;1.17;0.52;;;;;;;31.64;32.64;101302.00;10355801;28;20490;-78
2022/08/25 13:47:39;;;;;;;0.50;0.30;;;;;;;31.94;36.37;101295.91;10361848;28;20046;-79
2022/08/25 13:53:11;;;;;;;0.38;0.38;;;;;;;31.79;35.62;101288.78;10340867;28;20043;-78
2022/08/25 13:58:35;;;;;;;1.00;0.30;;;;;;;31.80;38.33;101279.84;10330306;28;20050;-78
2022/08/25 14:10:48;;;;;;;0.28;0.28;;;;;;;32.08;35.12;101275.56;10369760;28;20046;-79
2022/08/25 14:15:50;;;;;;;1.03;0.83;;;;;;;31.75;33.86;101276.63;10351619;28;20488;-78
2022/08/25 14:20:53;;;;;;;0.30;0.15;;;;;;;31.84;33.32;101269.88;10376408;28;20337;-79
2022/08/25 14:25:56;;;;;;;0.20;0.20;;;;;;;31.55;34.25;101267.91;10349559;28;20088;-77
2022/08/25 14:31:03;;;;;;;0.10;0.10;;;;;;;31.76;36.37;101262.34;10378246;28;20057;-78
2022/08/25 14:36:06;;;;;;;0.30;0.30;;;;;;;31.67;35.71;101252.22;10369026;28;20054;-80
2022/08/25 14:41:07;;;;;;;0.40;0.40;;;;;;;31.93;35.49;101250.69;10364416;28;20054;-77
2022/08/25 14:46:20;;;;;;;0.25;0.10;;;;;;;31.79;35.22;101241.72;10363072;28;20104;-78
2022/08/25 14:51:23;;;;;;;0.32;0.32;;;;;;;32.07;38.31;101249.84;10330411;28;20058;-78
2022/08/25 14:56:25;;;;;;;0.55;0.30;;;;;;;31.83;38.98;101237.06;10348702;28;20038;-79
2022/08/25 15:01:29;;;;;;;0.00;0.00;;;;;;;31.70;35.13;101236.03;10350339;28;20478;-79
2022/08/25 15:06:35;;;;;;;0.25;0.25;;;;;;;31.85;33.93;101235.16;10353203;28;20046;-79
2022/08/25 15:11:43;;;;;;;0.57;0.25;;;;;;;31.54;37.23;101225.41;10353616;28;20084;-79
2022/08/25 15:16:48;;;;;;;0.35;0.30;;;;;;;31.56;37.37;101224.38;10351379;28;20061;-78
2022/08/25 15:21:50;;;;;;;0.50;0.32;;;;;;;31.51;37.98;101221.13;10332057;28;20529;-77
2022/08/25 15:27:02;;;;;;;1.25;1.15;;;;;;;31.41;36.01;101219.91;10359811;28;20043;-78
2022/08/25 15:32:06;;;;;;;0.20;0.10;;;;;;;30.94;36.73;101217.16;10363747;28;20070;-78
2022/08/25 15:37:12;;;;;;;0.85;0.35;;;;;;;31.20;35.72;101211.38;10347097;28;20042;-78
2022/08/25 15:42:15;;;;;;;0.08;0.08;;;;;;;31.06;36.02;101204.97;10341080;28;20049;-78
2022/08/25 15:47:17;;;;;;;0.00;0.00;;;;;;;31.06;37.87;101198.81;10357529;28;20446;-78
2022/08/25 15:52:19;;;;;;;0.17;0.17;;;;;;;31.04;36.77;101208.66;10359893;28;20054;-78
2022/08/25 15:57:28;;;;;;;0.10;0.10;;;;;;;31.00;38.23;101206.19;10342601;28;20057;-77
2022/08/25 16:02:32;;;;;;;0.10;0.10;;;;;;;30.87;39.83;101199.81;10336892;28;20054;-77
2022/08/25 16:07:33;;;;;;;0.40;0.40;;;;;;;30.75;45.72;101200.50;10355339;28;20105;-77
2022/08/25 16:12:38;;;;;;;0.45;0.30;;;;;;;30.73;38.50;101197.06;10345939;28;20074;-77
2022/08/25 16:17:42;;;;;;;0.60;0.35;;;;;;;30.58;41.17;101196.94;10347349;28;20054;-77
2022/08/25 16:22:51;;;;;;;0.05;0.00;;;;;;;30.59;38.52;101198.69;10370578;28;20050;-77
2022/08/25 16:27:53;;;;;;;0.40;0.40;;;;;;;30.71;41.99;101194.50;10337990;28;20448;-78
2022/08/25 16:32:54;;;;;;;0.52;0.10;;;;;;;30.65;41.71;101193.03;10354303;28;20054;-78
2022/08/25 16:37:56;;;;;;;0.20;0.20;;;;;;;30.54;45.53;101182.97;10362602;28;20054;-78
2022/08/25 16:42:58;;;;;;;0.08;0.08;;;;;;;30.53;42.07;101188.38;10365928;28;20072;-77
2022/08/25 16:48:00;;;;;;;0.17;0.17;;;;;;;30.45;42.46;101187.91;10364932;28;20054;-78
2022/08/25 16:58:24;;;;;;;0.10;0.10;;;;;;;29.86;43.13;101182.94;10367623;28;20055;-78
2022/08/25 17:03:27;;;;;;;0.30;0.17;;;;;;;29.73;50.89;101186.25;10364021;28;20051;-79
2022/08/25 17:08:35;;;;;;;0.82;0.28;;;;;;;29.76;45.27;101187.88;10361320;28;20054;-78
2022/08/25 17:13:41;;;;;;;0.13;0.10;;;;;;;29.78;46.57;101182.47;10360084;28;20133;-79
2022/08/25 17:18:45;;;;;;;11.35;0.40;;;;;;;29.67;48.77;101183.91;10334385;28;20081;-78
2022/08/25 17:23:48;;;;;;;0.52;0.30;;;;;;;29.51;50.55;101186.44;10346859;28;20058;-79
2022/08/25 17:28:52;;;;;;;0.00;0.00;;;;;;;29.44;55.12;101183.25;10344851;28;20437;-79
2022/08/25 17:33:55;;;;;;;0.10;0.10;;;;;;;29.18;63.34;101189.78;10341071;28;20054;-79
2022/08/25 17:38:56;;;;;;;1.10;0.20;;;;;;;28.61;92.24;101179.16;10341537;28;20509;-79
2022/08/25 17:43:58;;;;;;;0.17;0.17;;;;;;;28.30;94.65;101181.38;10323523;28;20046;-79
2022/08/25 17:49:04;;;;;;;0.45;0.20;;;;;;;27.78;85.12;101183.59;10325301;28;20062;-78
2022/08/25 17:54:06;;;;;;;0.30;0.20;;;;;;;27.72;72.57;101190.03;10348329;28;20034;-78
2022/08/25 17:59:08;;;;;;;0.20;0.20;;;;;;;27.63;71.41;101187.75;10381216;28;20050;-78
2022/08/25 18:04:10;;;;;;;0.45;0.28;;;;;;;27.19;73.57;101185.94;10367565;28;20482;-78
2022/08/25 18:09:18;;;;;;;2.30;0.57;;;;;;;26.69;84.10;101192.25;10342100;28;20050;-78
2022/08/25 18:14:22;;;;;;;0.05;0.05;;;;;;;26.18;98.53;101197.56;10350146;28;20058;-78
2022/08/25 18:19:26;;;;;;;0.20;0.20;;;;;;;26.12;89.63;101197.78;10319960;28;20046;-76
2022/08/25 18:24:27;;;;;;;0.10;0.10;;;;;;;25.70;96.21;101200.94;10337009;28;20051;-77
2022/08/25 18:29:30;;;;;;;1.17;0.32;;;;;;;25.38;97.24;101201.06;10336582;28;20138;-77
2022/08/25 18:34:32;;;;;;;0.17;0.10;;;;;;;25.19;93.23;101203.38;10337253;28;20054;-76
2022/08/25 18:44:56;;;;;;;0.35;0.35;;;;;;;24.60;100.00;101201.53;10338492;28;20142;-76
2022/08/25 18:49:59;;;;;;;0.85;0.30;;;;;;;24.52;100.00;101210.53;10323764;28;20046;-78
2022/08/25 18:55:05;;;;;;;0.10;0.10;;;;;;;24.19;100.00;101212.28;10351909;28;20062;-77
2022/08/25 19:00:09;;;;;;;0.03;0.03;;;;;;;24.01;100.00;101218.91;10353083;28;20141;-78
2022/08/25 19:05:40;;;;;;;1.30;0.65;;;;;;;23.74;100.00;101216.88;10351184;28;20093;-77
2022/08/25 19:10:51;;;;;;;0.20;0.20;;;;;;;23.45;100.00;101215.81;10364082;28;20050;-76
2022/08/25 19:15:53;;;;;;;0.15;0.15;;;;;;;23.01;100.00;101224.66;10363562;28;20073;-76
2022/08/25 19:20:54;;;;;;;0.43;0.22;;;;;;;22.97;100.00;101219.44;10348002;28;20086;-77
2022/08/25 19:25:56;;;;;;;0.22;0.20;;;;;;;22.77;100.00;101219.84;10348956;28;20129;-77
2022/08/25 19:30:59;;;;;;;0.30;0.30;;;;;;;22.64;100.00;101218.38;10353169;28;20054;-78
2022/08/25 19:36:02;;;;;;;3.33;0.68;;;;;;;22.26;100.00;101236.53;10347240;28;20050;-78
2022/08/25 19:41:04;;;;;;;0.28;0.20;;;;;;;22.33;100.00;101237.28;10353378;28;20058;-78
2022/08/25 19:46:15;;;;;;;0.30;0.15;;;;;;;22.05;100.00;101237.75;10346468;28;20046;-79
2022/08/25 19:51:20;;;;;;;0.28;0.28;;;;;;;21.65;100.00;101243.63;10359303;28;20058;-78
2022/08/25 19:56:22;;;;;;;0.47;0.22;;;;;;;21.45;100.00;101252.63;10358716;28;20078;-77
2022/08/25 20:01:24;;;;;;;0.20;0.20;;;;;;;21.50;100.00;101242.94;10358496;28;20050;-76
2022/08/25 20:06:26;;;;;;;0.00;0.00;;;;;;;21.02;100.00;101263.66;10352275;28;20082;-77
2022/08/25 20:11:29;;;;;;;0.38;0.32;;;;;;;20.95;100.00;101277.72;10349897;28;20051;-78
2022/08/25 20:16:31;;;;;;;0.30;0.13;;;;;;;20.67;100.00;101281.47;10353345;28;20115;-75
2022/08/25 20:21:34;;;;;;;0.40;0.40;;;;;;;20.37;100.00;101290.44;10343331;28;20066;-76
2022/08/25 20:26:38;;;;;;;0.10;0.10;;;;;;;20.19;100.00;101299.31;10344618;28;20050;-77
2022/08/25 20:31:43;;;;;;;0.08;0.08;;;;;;;20.06;100.00;101307.28;10349487;28;20051;-76
2022/08/25 20:36:47;;;;;;;0.10;0.10;;;;;;;19.99;100.00;101309.94;10350667;28;20055;-76
2022/08/25 20:41:50;;;;;;;0.63;0.38;;;;;;;19.92;100.00;101309.97;10349686;28;20054;-77
2022/08/25 20:46:52;;;;;;;0.30;0.20;;;;;;;19.96;100.00;101303.84;10343323;28;20054;-78
2022/08/25 20:51:55;;;;;;;0.22;0.22;;;;;;;19.96;100.00;101308.19;10343630;28;20051;-77
2022/08/25 20:56:56;;;;;;;0.45;0.40;;;;;;;19.76;100.00;101324.00;10325908;28;20103;-77
2022/08/25 21:01:58;;;;;;;0.10;0.10;;;;;;;19.65;100.00;101317.06;10324307;28;20042;-77
2022/08/25 21:07:00;;;;;;;0.20;0.20;;;;;;;19.55;100.00;101317.13;10325447;28;20046;-77
2022/08/25 21:12:05;;;;;;;0.15;0.10;;;;;;;19.68;100.00;101316.19;10340571;28;20108;-77
2022/08/25 21:17:10;;;;;;;0.15;0.15;;;;;;;19.55;100.00;101311.91;10323106;28;20454;-77
2022/08/25 21:22:13;;;;;;;0.10;0.10;;;;;;;19.59;100.00;101304.03;10340687;28;20057;-77
2022/08/25 21:27:15;;;;;;;0.20;0.20;;;;;;;19.43;100.00;101307.59;10342338;28;20054;-77
2022/08/25 21:32:18;;;;;;;0.88;0.68;;;;;;;19.56;100.00;101317.13;10323507;28;20105;-77
2022/08/25 21:37:19;;;;;;;0.70;0.38;;;;;;;19.33;100.00;101323.31;10322453;28;20050;-76
2022/08/25 21:42:23;;;;;;;0.40;0.40;;;;;;;19.01;100.00;101329.53;10339876;28;20058;-76
2022/08/25 21:47:25;;;;;;;0.15;0.10;;;;;;;18.86;100.00;101345.19;10320999;28;20069;-77
2022/08/25 21:52:27;;;;;;;15.40;1.13;;;;;;;18.73;100.00;101333.03;10320277;28;20105;-77
2022/08/25 21:57:31;;;;;;;0.47;0.47;;;;;;;18.10;100.00;101367.75;10320270;28;20490;-77
2022/08/25 22:02:37;;;;;;;1.27;0.82;;;;;;;18.86;100.00;101360.84;10321368;28;20062;-76
2022/08/25 22:07:39;;;;;;;1.92;0.75;;;;;;;20.10;100.00;101339.50;10337636;28;20044;-77
2022/08/25 22:12:45;;;;;;;0.73;0.73;;;;;;;20.27;100.00;101342.88;10337387;28;20058;-77
2022/08/25 22:17:48;;;;;;;1.08;0.75;;;;;;;20.57;100.00;101356.59;10336886;28;20054;-77
2022/08/25 22:22:50;;;;;;;4.13;1.63;;;;;;;20.76;100.00;101387.88;10336829;28;20519;-77
2022/08/25 22:27:52;;;;;;;2.35;1.77;;;;;;;20.80;100.00;101400.06;10319274;28;20058;-78
2022/08/25 22:32:57;;;;;;;2.05;1.02;;;;;;;20.80;100.00;101407.03;10336909;28;20058;-77
2022/08/25 22:38:04;;;;;;;1.95;1.50;;;;;;;20.85;100.00;101416.59;10319064;28;20218;-78
2022/08/25 22:43:07;;;;;;;3.85;2.58;;;;;;;20.84;100.00;101422.72;10318564;28;20062;-78
2022/08/25 22:48:11;;;;;;;6.82;2.97;;;;;;;20.77;100.00;101434.97;10335114;28;20082;-77
2022/08/25 22:53:12;;;;;;;3.05;2.63;;;;;;;20.86;100.00;101439.28;10335577;28;20095;-78
2022/08/25 22:58:14;;;;;;;5.80;3.80;;;;;;;20.85;100.00;101450.66;10302179;28;20521;-78
2022/08/25 23:03:16;;;;;;;5.63;2.83;;;;;;;20.70;100.00;101466.44;10317651;28;20054;-78
2022/08/25 23:08:19;;;;;;;2.90;2.33;;;;;;;20.74;100.00;101465.56;10334915;28;20051;-79
2022/08/25 23:13:41;;;;;;;4.20;2.88;;;;;;;20.70;100.00;101462.06;10295404;28;20057;-77
2022/08/25 23:18:43;;;;;;;5.35;2.63;;;;;;;20.59;100.00;101470.00;10294412;28;20511;-78
2022/08/25 23:23:46;;;;;;;5.95;2.80;;;;;;;20.58;100.00;101478.75;10294801;28;20091;-78
2022/08/25 23:28:49;;;;;;;4.45;2.33;;;;;;;20.63;100.00;101470.84;10330633;28;20086;-78
2022/08/25 23:33:51;;;;;;;2.40;1.88;;;;;;;20.61;100.00;101473.47;10334707;28;20062;-78
2022/08/25 23:38:53;;;;;;;4.80;2.65;;;;;;;20.51;100.00;101469.19;10316870;28;20055;-78
2022/08/25 23:43:54;;;;;;;23.25;3.20;;;;;;;20.52;100.00;101470.91;10316687;28;20055;-79
2022/08/25 23:48:56;;;;;;;5.75;3.15;;;;;;;20.43;100.00;101473.63;10335355;28;20101;-78
2022/08/25 23:54:05;;;;;;;6.00;2.80;;;;;;;20.38;100.00;101472.75;10334155;28;20532;-77